Time;durP1;ratioP1;P1;durP2;ratioP2;P2;SDS_P1;SDS_P2;PMS_P1;PMS_P2;Temp;Humidity;BMP_temperature;BMP_pressure;BME280_temperature;BME280_humidity;BME280_pressure;Samples;Min_cycle;Max_cycle;Signal;HPM_P1;HPM_P2
2022/06/12 00:00:41;;;;;;;12.18;4.75;;;12.30;99.90;;;;;;5036563;28;20068;-73
2022/06/12 00:03:09;;;;;;;15.18;4.82;;;12.40;99.90;;;;;;5053639;28;20522;-73
2022/06/12 00:05:37;;;;;;;10.77;5.00;;;12.30;99.90;;;;;;5049372;28;20174;-73
2022/06/12 00:08:05;;;;;;;10.18;4.70;;;12.40;99.90;;;;;;5053810;28;20509;-73
2022/06/12 00:10:32;;;;;;;11.20;4.70;;;12.40;99.90;;;;;;5031985;28;20048;-73
2022/06/12 00:12:58;;;;;;;8.27;3.88;;;12.50;99.90;;;;;;5045512;28;20056;-73
2022/06/12 00:15:27;;;;;;;10.52;3.85;;;12.60;99.90;;;;;;5033920;28;20478;-73
2022/06/12 00:17:53;;;;;;;11.40;3.80;;;12.70;99.90;;;;;;5035461;28;20034;-73
2022/06/12 00:20:22;;;;;;;13.65;4.82;;;12.70;99.90;;;;;;5043729;28;20689;-73
2022/06/12 00:22:48;;;;;;;12.18;4.15;;;12.80;99.90;;;;;;5033513;28;20435;-73
2022/06/12 00:25:15;;;;;;;14.32;4.35;;;12.80;99.90;;;;;;5048847;28;20510;-73
2022/06/12 00:27:42;;;;;;;11.02;4.10;;;12.90;99.90;;;;;;5053359;28;20061;-73
2022/06/12 00:30:11;;;;;;;14.32;5.18;;;12.90;99.90;;;;;;5034348;28;20033;-73
2022/06/12 00:32:38;;;;;;;11.63;4.25;;;13.00;99.90;;;;;;5051016;28;20036;-73
2022/06/12 00:35:07;;;;;;;13.55;4.88;;;13.00;99.90;;;;;;5051730;28;20553;-73
2022/06/12 00:37:34;;;;;;;15.90;4.40;;;13.00;99.90;;;;;;5053526;28;20064;-73
2022/06/12 00:40:00;;;;;;;13.80;4.80;;;13.00;99.90;;;;;;5050996;28;20036;-73
2022/06/12 00:42:35;;;;;;;14.75;4.40;;;13.00;99.90;;;;;;5014575;28;20043;-73
2022/06/12 00:45:21;;;;;;;11.63;4.50;;;13.00;99.90;;;;;;5046044;28;20055;-73
2022/06/12 00:47:47;;;;;;;11.63;4.43;;;13.00;99.90;;;;;;5036578;28;20051;-73
2022/06/12 00:50:13;;;;;;;14.23;4.65;;;12.90;99.90;;;;;;5055356;28;20409;-73
2022/06/12 00:52:47;;;;;;;10.90;4.13;;;13.00;99.90;;;;;;5053357;28;21386;-73
2022/06/12 00:55:25;;;;;;;11.77;4.68;;;12.90;99.90;;;;;;5033098;28;20068;-73
2022/06/12 00:58:02;;;;;;;12.15;4.25;;;12.90;99.90;;;;;;5043513;28;20458;-73
2022/06/12 01:00:28;;;;;;;10.23;3.90;;;12.90;99.90;;;;;;5043065;28;20048;-73
2022/06/12 01:02:54;;;;;;;10.32;4.90;;;12.90;99.90;;;;;;5051638;28;20036;-73
2022/06/12 01:08:08;;;;;;;12.02;4.50;;;13.00;99.90;;;;;;5049695;28;20072;-73
2022/06/12 01:10:37;;;;;;;13.07;3.95;;;13.00;99.90;;;;;;5037536;28;20131;-73
2022/06/12 01:13:16;;;;;;;9.63;3.90;;;13.00;99.90;;;;;;5039410;28;20081;-73
2022/06/12 01:15:49;;;;;;;16.02;4.68;;;13.00;99.90;;;;;;5036851;28;20046;-73
2022/06/12 01:18:19;;;;;;;12.80;4.53;;;13.00;99.90;;;;;;5050173;28;20049;-73
2022/06/12 01:20:58;;;;;;;8.13;4.18;;;13.00;99.90;;;;;;5050929;28;20083;-73
2022/06/12 01:23:54;;;;;;;10.50;4.57;;;12.90;99.90;;;;;;5039591;28;20040;-73
2022/06/12 01:26:25;;;;;;;10.35;4.18;;;12.90;99.90;;;;;;5052159;28;20123;-73
2022/06/12 01:29:26;;;;;;;14.10;4.47;;;12.90;99.90;;;;;;5048649;28;20041;-73
2022/06/12 01:32:21;;;;;;;16.02;5.15;;;12.90;99.90;;;;;;5054744;28;20497;-73
2022/06/12 01:34:50;;;;;;;16.85;5.63;;;12.80;99.90;;;;;;5052487;28;20033;-73
2022/06/12 01:37:18;;;;;;;14.43;4.90;;;12.80;99.90;;;;;;5054814;28;20043;-73
2022/06/12 01:40:09;;;;;;;13.65;4.57;;;12.80;99.90;;;;;;5032944;28;20037;-73
2022/06/12 01:43:02;;;;;;;9.10;4.95;;;12.80;99.90;;;;;;5052887;28;20426;-73
2022/06/12 01:45:53;;;;;;;9.43;4.25;;;12.70;99.90;;;;;;5034113;28;20063;-73
2022/06/12 01:48:44;;;;;;;11.70;4.07;;;12.70;99.90;;;;;;5036397;28;20038;-73
2022/06/12 01:51:16;;;;;;;10.63;4.35;;;12.70;99.90;;;;;;5053156;28;20044;-73
2022/06/12 01:53:55;;;;;;;;;;;12.70;99.90;;;;;;5056663;28;20040;-73
2022/06/12 01:56:44;;;;;;;6.95;3.55;;;12.70;99.90;;;;;;5034949;28;19917;-73
2022/06/12 01:59:28;;;;;;;7.55;3.63;;;12.70;99.90;;;;;;5050082;28;20060;-73
2022/06/12 02:02:35;;;;;;;10.93;3.47;;;12.70;99.90;;;;;;5039678;28;20436;-73
2022/06/12 02:05:44;;;;;;;6.40;2.92;;;12.70;99.90;;;;;;5036398;28;20071;-73
2022/06/12 02:08:16;;;;;;;6.30;3.10;;;12.70;99.90;;;;;;5043874;28;20036;-73
2022/06/12 02:10:48;;;;;;;9.02;3.53;;;12.70;99.90;;;;;;5045297;28;20060;-73
2022/06/12 02:13:27;;;;;;;11.07;3.90;;;12.60;99.90;;;;;;5047754;28;20037;-73
2022/06/12 02:16:03;;;;;;;10.98;3.13;;;12.60;99.90;;;;;;5051929;28;20040;-73
2022/06/12 02:18:50;;;;;;;12.30;3.15;;;12.60;99.90;;;;;;5051516;28;20127;-73
2022/06/12 02:21:37;;;;;;;13.25;3.60;;;12.70;99.90;;;;;;5037185;28;20139;-73
2022/06/12 02:24:15;;;;;;;13.25;3.72;;;12.70;99.90;;;;;;5053628;28;20053;-73
2022/06/12 02:27:00;;;;;;;9.75;3.00;;;12.70;99.90;;;;;;5034643;28;20072;-73
2022/06/12 02:29:37;;;;;;;8.82;2.97;;;12.70;99.90;;;;;;5049674;28;20052;-73
2022/06/12 02:32:09;;;;;;;9.70;3.08;;;12.60;99.90;;;;;;5050253;28;20042;-73
2022/06/12 02:34:38;;;;;;;;;;;12.60;99.90;;;;;;5038961;28;20037;-73
2022/06/12 02:37:17;;;;;;;4.85;2.90;;;12.50;99.90;;;;;;5068553;28;19943;-73
2022/06/12 02:39:48;;;;;;;8.65;3.83;;;12.50;99.90;;;;;;5070815;28;20041;-73
2022/06/12 02:42:32;;;;;;;10.73;4.10;;;12.50;99.90;;;;;;5041810;28;20538;-73
2022/06/12 02:45:06;;;;;;;11.07;3.63;;;12.50;99.90;;;;;;5036649;28;20049;-73
2022/06/12 02:47:34;;;;;;;8.50;3.30;;;12.50;99.90;;;;;;5050675;28;20492;-73
2022/06/12 02:50:01;;;;;;;7.93;3.50;;;12.40;99.90;;;;;;5051324;28;20132;-73
2022/06/12 02:52:39;;;;;;;8.32;3.40;;;12.40;99.90;;;;;;5050801;28;20398;-73
2022/06/12 02:55:37;;;;;;;8.05;3.10;;;12.40;99.90;;;;;;5054897;28;20029;-73
2022/06/12 02:58:37;;;;;;;6.65;3.28;;;12.40;99.90;;;;;;5062750;28;20044;-73
2022/06/12 03:01:14;;;;;;;9.63;3.20;;;12.40;99.90;;;;;;5038830;28;20089;-73
2022/06/12 03:03:55;;;;;;;9.15;3.20;;;12.30;99.90;;;;;;5036316;28;20183;-73
2022/06/12 03:06:26;;;;;;;9.68;3.28;;;12.30;99.90;;;;;;5053506;28;20037;-73
2022/06/12 03:08:55;;;;;;;10.18;3.70;;;12.30;99.90;;;;;;5048689;28;20423;-73
2022/06/12 03:11:36;;;;;;;8.40;3.33;;;12.30;99.90;;;;;;5036193;28;20466;-73
2022/06/12 03:14:08;;;;;;;7.72;3.15;;;12.40;99.90;;;;;;5035128;28;20033;-73
2022/06/12 03:16:37;;;;;;;12.45;3.47;;;12.30;99.90;;;;;;5034209;28;20094;-73
2022/06/12 03:19:14;;;;;;;10.10;3.33;;;12.40;99.90;;;;;;5033475;28;20455;-73
2022/06/12 03:21:55;;;;;;;8.70;2.75;;;12.30;99.90;;;;;;5051972;28;20040;-73
2022/06/12 03:24:53;;;;;;;9.35;3.70;;;12.30;99.90;;;;;;5054119;28;20589;-73
2022/06/12 03:27:37;;;;;;;11.82;3.53;;;12.30;99.90;;;;;;5042421;28;20102;-73
2022/06/12 03:30:46;;;;;;;6.70;3.67;;;12.30;99.90;;;;;;5036029;28;20044;-73
2022/06/12 03:33:50;;;;;;;7.63;3.05;;;12.30;99.90;;;;;;5028995;28;20052;-73
2022/06/12 03:36:28;;;;;;;9.63;3.80;;;12.30;99.90;;;;;;5034431;28;20109;-72
2022/06/12 03:39:13;;;;;;;8.13;2.80;;;12.30;99.90;;;;;;5029934;28;20106;-72
2022/06/12 03:41:51;;;;;;;12.77;3.42;;;12.30;99.90;;;;;;5051830;28;20100;-73
2022/06/12 03:44:46;;;;;;;9.15;2.80;;;12.30;99.90;;;;;;5048160;28;20498;-73
2022/06/12 03:47:14;;;;;;;10.88;3.00;;;12.40;99.90;;;;;;5045965;28;20452;-73
2022/06/12 03:49:55;;;;;;;10.10;3.42;;;12.40;99.90;;;;;;5032882;28;20037;-73
2022/06/12 03:52:35;;;;;;;7.72;2.92;;;12.40;99.90;;;;;;5033161;28;20037;-73
2022/06/12 03:58:19;;;;;;;8.80;2.97;;;12.40;99.90;;;;;;5050210;28;20045;-72
2022/06/12 04:00:48;;;;;;;8.67;2.97;;;12.50;99.90;;;;;;5047899;28;20032;-73
2022/06/12 04:03:25;;;;;;;10.75;3.42;;;12.50;99.90;;;;;;5051810;28;20035;-73
2022/06/12 04:05:56;;;;;;;10.65;3.15;;;12.50;99.90;;;;;;5052635;28;20047;-72
2022/06/12 04:08:33;;;;;;;7.78;3.05;;;12.50;99.90;;;;;;5034547;28;20106;-74
2022/06/12 04:11:00;;;;;;;9.35;3.05;;;12.50;99.90;;;;;;5049386;28;20092;-73
2022/06/12 04:13:27;;;;;;;8.82;2.90;;;12.50;99.90;;;;;;5034580;28;20032;-72
2022/06/12 04:15:56;;;;;;;7.18;3.17;;;12.60;99.90;;;;;;5048698;28;20082;-72
2022/06/12 04:18:27;;;;;;;10.95;3.40;;;12.60;99.90;;;;;;5050163;28;20056;-73
2022/06/12 04:21:00;;;;;;;9.63;3.45;;;12.60;99.90;;;;;;5038134;28;20068;-73
2022/06/12 04:23:44;;;;;;;7.88;3.50;;;12.60;99.90;;;;;;5039540;28;20045;-73
2022/06/12 04:26:29;;;;;;;8.63;3.63;;;12.70;99.90;;;;;;5055664;28;20560;-73
2022/06/12 04:29:05;;;;;;;13.50;3.53;;;12.70;99.90;;;;;;5035456;28;20460;-72
2022/06/12 04:31:32;;;;;;;9.32;3.53;;;12.80;99.90;;;;;;5067825;28;20124;-72
2022/06/12 04:34:07;;;;;;;10.00;3.20;;;12.80;99.90;;;;;;5057850;28;20036;-72
2022/06/12 04:36:33;;;;;;;10.27;3.40;;;12.80;99.90;;;;;;5055546;28;20033;-72
2022/06/12 04:38:59;;;;;;;10.02;3.60;;;12.80;99.90;;;;;;5038898;28;20482;-73
2022/06/12 04:41:30;;;;;;;11.43;3.53;;;12.90;99.90;;;;;;5057026;28;20032;-73
2022/06/12 04:43:56;;;;;;;8.07;3.55;;;12.90;99.90;;;;;;5050715;28;20499;-73
2022/06/12 04:46:23;;;;;;;10.02;3.40;;;12.90;99.90;;;;;;5048672;28;20335;-72
2022/06/12 04:48:51;;;;;;;10.80;3.58;;;12.90;99.90;;;;;;5052743;28;20114;-72
2022/06/12 04:51:18;;;;;;;6.72;3.33;;;13.00;99.90;;;;;;5052264;28;20039;-72
2022/06/12 04:53:45;;;;;;;8.63;4.05;;;13.00;99.90;;;;;;5037495;28;20135;-72
2022/06/12 04:56:13;;;;;;;13.02;3.97;;;13.10;99.90;;;;;;5056677;28;20037;-72
2022/06/12 04:58:39;;;;;;;10.52;3.60;;;13.10;99.90;;;;;;5053052;28;20056;-72
2022/06/12 05:01:06;;;;;;;12.52;3.40;;;13.10;99.90;;;;;;5050857;28;20048;-73
2022/06/12 05:03:32;;;;;;;14.13;3.70;;;13.10;99.90;;;;;;5038928;28;20128;-72
2022/06/12 05:05:58;;;;;;;14.02;3.85;;;13.20;99.90;;;;;;5040109;28;20069;-72
2022/06/12 05:08:25;;;;;;;10.88;3.30;;;13.20;99.90;;;;;;5056703;28;20546;-73
2022/06/12 05:10:52;;;;;;;8.88;3.88;;;13.20;99.90;;;;;;5052580;28;20043;-72
2022/06/12 05:13:18;;;;;;;10.68;3.90;;;13.30;99.90;;;;;;5051505;28;20044;-74
2022/06/12 05:15:45;;;;;;;9.52;3.63;;;13.30;99.90;;;;;;5054175;28;20036;-73
2022/06/12 05:18:13;;;;;;;9.32;3.13;;;13.40;99.90;;;;;;5039281;28;20123;-72
2022/06/12 05:20:41;;;;;;;11.48;3.35;;;13.40;99.90;;;;;;5055317;28;20067;-72
2022/06/12 05:23:08;;;;;;;9.95;3.63;;;13.40;99.90;;;;;;5051160;28;20251;-73
2022/06/12 05:25:35;;;;;;;13.77;3.88;;;13.50;99.90;;;;;;5067367;28;20558;-72
2022/06/12 05:28:03;;;;;;;8.48;3.30;;;13.50;99.90;;;;;;5037149;28;20047;-73
2022/06/12 05:30:32;;;;;;;14.05;4.10;;;13.60;99.90;;;;;;5034929;28;20733;-73
2022/06/12 05:33:04;;;;;;;11.35;3.45;;;13.70;99.90;;;;;;5047908;28;20394;-72
2022/06/12 05:35:31;;;;;;;10.63;4.05;;;13.70;99.90;;;;;;5053209;28;20052;-72
2022/06/12 05:38:00;;;;;;;12.20;3.80;;;13.80;99.90;;;;;;5038197;28;20061;-73
2022/06/12 05:40:34;;;;;;;11.07;3.67;;;13.90;99.90;;;;;;5034064;28;20048;-71
2022/06/12 05:43:00;;;;;;;10.98;3.60;;;13.90;99.90;;;;;;5063733;28;20049;-73
2022/06/12 05:45:28;;;;;;;14.30;3.70;;;14.00;99.90;;;;;;5037884;28;20075;-72
2022/06/12 05:48:02;;;;;;;16.15;3.85;;;14.10;99.90;;;;;;5054583;28;20037;-72
2022/06/12 05:50:32;;;;;;;15.13;4.22;;;14.10;99.90;;;;;;5030660;28;20486;-72
2022/06/12 05:52:58;;;;;;;10.70;4.15;;;14.20;99.90;;;;;;5051049;28;20174;-73
2022/06/12 05:55:23;;;;;;;16.83;5.18;;;14.30;99.90;;;;;;5035894;28;20033;-73
2022/06/12 05:57:49;;;;;;;20.67;5.03;;;14.30;99.90;;;;;;5039192;28;20455;-73
2022/06/12 06:00:28;;;;;;;10.30;4.15;;;14.40;99.90;;;;;;5036438;28;20470;-72
2022/06/12 06:02:54;;;;;;;15.30;4.35;;;14.50;99.90;;;;;;5037147;28;20041;-72
2022/06/12 06:05:21;;;;;;;13.18;4.13;;;14.50;99.90;;;;;;5052785;28;20085;-72
2022/06/12 06:07:46;;;;;;;11.90;4.13;;;14.60;99.90;;;;;;5054974;28;20072;-73
2022/06/12 06:10:17;;;;;;;16.08;3.90;;;14.70;99.90;;;;;;5035125;28;20155;-73
2022/06/12 06:12:43;;;;;;;12.13;4.35;;;14.70;99.90;;;;;;5049907;28;20037;-73
2022/06/12 06:15:10;;;;;;;11.63;3.90;;;14.80;99.90;;;;;;5047233;28;20039;-72
2022/06/12 06:17:36;;;;;;;10.63;4.47;;;14.90;99.90;;;;;;5052872;28;20048;-73
2022/06/12 06:20:02;;;;;;;10.77;4.30;;;14.90;99.90;;;;;;5050792;28;20498;-73
2022/06/12 06:22:28;;;;;;;13.73;4.20;;;15.00;99.90;;;;;;5048330;28;20491;-72
2022/06/12 06:24:54;;;;;;;16.75;4.47;;;15.10;99.90;;;;;;5048597;28;20055;-72
2022/06/12 06:27:20;;;;;;;19.27;5.32;;;15.20;99.90;;;;;;5044352;28;20045;-73
2022/06/12 06:29:45;;;;;;;13.82;4.88;;;15.30;99.90;;;;;;5033032;28;20044;-72
2022/06/12 06:32:11;;;;;;;17.05;5.55;;;15.30;99.90;;;;;;5032698;28;20039;-72
2022/06/12 06:34:39;;;;;;;17.42;4.85;;;15.40;99.90;;;;;;5048901;28;20041;-72
2022/06/12 06:37:07;;;;;;;19.90;5.25;;;15.50;99.90;;;;;;5049338;28;20044;-72
2022/06/12 06:39:33;;;;;;;11.30;4.43;;;15.60;99.90;;;;;;5034115;28;20040;-71
2022/06/12 06:41:59;;;;;;;12.88;5.60;;;15.70;99.90;;;;;;5047542;28;21555;-72
2022/06/12 06:47:09;;;;;;;16.70;4.93;;;16.00;99.90;;;;;;5052899;28;20048;-72
2022/06/12 06:49:35;;;;;;;19.90;5.45;;;16.00;99.90;;;;;;5035071;28;20094;-72
2022/06/12 06:52:01;;;;;;;14.18;4.78;;;16.00;99.90;;;;;;5046956;28;20559;-72
2022/06/12 06:54:27;;;;;;;16.92;5.40;;;16.00;99.90;;;;;;5050043;28;20040;-72
2022/06/12 06:56:53;;;;;;;13.95;5.63;;;16.10;99.90;;;;;;5048630;28;20391;-72
2022/06/12 06:59:19;;;;;;;19.73;5.07;;;16.20;99.90;;;;;;5049835;28;20072;-72
2022/06/12 07:01:44;;;;;;;21.25;5.50;;;16.30;99.90;;;;;;5032933;28;20037;-72
2022/06/12 07:04:10;;;;;;;18.92;5.03;;;16.40;99.90;;;;;;5048476;28;20378;-72
2022/06/12 07:06:36;;;;;;;17.85;5.55;;;16.40;99.90;;;;;;5044509;28;20040;-72
2022/06/12 07:09:03;;;;;;;19.80;5.75;;;16.50;99.90;;;;;;5037687;28;20094;-72
2022/06/12 07:11:30;;;;;;;19.00;5.75;;;16.50;99.90;;;;;;5026003;28;20036;-72
2022/06/12 07:13:56;;;;;;;17.38;5.25;;;16.60;99.90;;;;;;5044238;28;20033;-72
2022/06/12 07:16:24;;;;;;;19.13;6.38;;;16.70;99.90;;;;;;5044109;28;20120;-71
2022/06/12 07:18:51;;;;;;;17.65;5.45;;;16.90;99.90;;;;;;5044197;28;20164;-72
2022/06/12 07:21:16;;;;;;;19.92;6.10;;;17.00;99.90;;;;;;5046432;28;20037;-73
2022/06/12 07:23:43;;;;;;;19.95;6.70;;;17.00;99.90;;;;;;5056925;28;20037;-72
2022/06/12 07:26:18;;;;;;;23.85;6.68;;;17.10;99.90;;;;;;5036981;28;20029;-72
2022/06/12 07:28:44;;;;;;;19.08;6.93;;;17.30;99.90;;;;;;5042059;28;20042;-72
2022/06/12 07:31:10;;;;;;;26.52;6.95;;;17.30;99.90;;;;;;5019371;28;20036;-72
2022/06/12 07:33:37;;;;;;;20.60;6.70;;;17.40;99.90;;;;;;5025550;28;20130;-72
2022/06/12 07:36:05;;;;;;;20.08;6.38;;;17.60;99.90;;;;;;5037810;28;20083;-72
2022/06/12 07:38:32;;;;;;;16.95;6.40;;;17.70;99.90;;;;;;5049908;28;20552;-73
2022/06/12 07:41:01;;;;;;;19.10;5.90;;;17.80;99.90;;;;;;5030338;28;20041;-73
2022/06/12 07:43:29;;;;;;;15.55;5.90;;;17.90;99.90;;;;;;5036931;28;20045;-72
2022/06/12 07:45:55;;;;;;;19.58;6.30;;;18.00;99.90;;;;;;5047283;28;20086;-75
2022/06/12 07:48:24;;;;;;;19.88;5.78;;;18.10;99.90;;;;;;5053812;28;20045;-75
2022/06/12 07:51:02;;;;;;;22.17;5.65;;;18.20;99.90;;;;;;5049415;28;20459;-76
2022/06/12 07:53:30;;;;;;;19.23;5.40;;;18.30;99.90;;;;;;5038070;28;20279;-77
2022/06/12 07:55:56;;;;;;;17.95;5.10;;;18.40;99.90;;;;;;5037860;28;20037;-77
2022/06/12 07:58:25;;;;;;;16.33;5.70;;;18.60;99.90;;;;;;5049764;28;20047;-76
2022/06/12 08:00:55;;;;;;;19.95;5.95;;;18.70;99.90;;;;;;5056513;28;20044;-79
2022/06/12 08:03:20;;;;;;;18.00;5.07;;;18.80;99.90;;;;;;5055094;28;20041;-79
2022/06/12 08:05:46;;;;;;;18.08;5.70;;;18.90;99.90;;;;;;5036325;28;20117;-77
2022/06/12 08:08:12;;;;;;;18.75;4.78;;;19.00;99.90;;;;;;5050897;28;20044;-77
2022/06/12 08:10:38;;;;;;;17.90;4.78;;;19.20;99.90;;;;;;5022306;28;20041;-77
2022/06/12 08:13:06;;;;;;;20.98;5.30;;;19.20;99.90;;;;;;5026470;28;20040;-77
2022/06/12 08:15:33;;;;;;;19.20;4.95;;;19.40;99.90;;;;;;5054976;28;20047;-77
2022/06/12 08:18:00;;;;;;;14.02;5.03;;;19.60;99.90;;;;;;5055067;28;20040;-78
2022/06/12 08:20:31;;;;;;;19.90;5.78;;;19.60;99.90;;;;;;5055090;28;20117;-77
2022/06/12 08:23:29;;;;;;;17.42;4.88;;;19.70;99.90;;;;;;5040567;28;20048;-78
2022/06/12 08:26:02;;;;;;;16.70;5.70;;;19.70;99.90;;;;;;5049082;28;20040;-79
2022/06/12 08:28:29;;;;;;;;;;;19.70;99.90;;;;;;5030012;28;20147;-78
2022/06/12 08:30:55;;;;;;;20.38;5.03;;;19.70;99.90;;;;;;5011560;28;19921;-78
2022/06/12 08:33:21;;;;;;;25.20;6.63;;;19.90;99.90;;;;;;5017191;28;20234;-77
2022/06/12 08:35:48;;;;;;;14.52;4.80;;;19.90;99.90;;;;;;4993754;28;20856;-77
2022/06/12 08:38:15;;;;;;;13.75;4.57;;;19.90;99.90;;;;;;5050298;28;20055;-80
2022/06/12 08:40:53;;;;;;;16.80;4.43;;;20.00;99.90;;;;;;5023169;28;20556;-78
2022/06/12 08:43:37;;;;;;;17.50;5.05;;;20.00;99.90;;;;;;5037767;28;20041;-78
2022/06/12 08:46:21;;;;;;;15.05;4.75;;;20.10;99.90;;;;;;5029508;28;20819;-77
2022/06/12 08:49:15;;;;;;;13.52;4.40;;;19.90;99.90;;;;;;5038736;28;20052;-77
2022/06/12 08:52:07;;;;;;;15.32;5.30;;;19.90;99.90;;;;;;5031981;28;20123;-78
2022/06/12 08:54:54;;;;;;;13.30;4.63;;;19.90;99.90;;;;;;5037607;28;20045;-77
2022/06/12 08:57:28;;;;;;;13.02;4.70;;;19.90;99.90;;;;;;5018766;28;20397;-77
2022/06/12 08:59:59;;;;;;;15.30;5.07;;;19.90;99.90;;;;;;5039066;28;20127;-76
2022/06/12 09:02:29;;;;;;;16.50;4.78;;;20.00;99.90;;;;;;5038135;28;20068;-81
2022/06/12 09:04:55;;;;;;;13.55;4.25;;;20.20;99.90;;;;;;5032565;28;20083;-76
2022/06/12 09:07:38;;;;;;;11.30;4.65;;;20.30;99.90;;;;;;5037010;28;20040;-77
2022/06/12 09:10:17;;;;;;;10.70;4.25;;;20.20;99.90;;;;;;5022954;28;20470;-78
2022/06/12 09:12:51;;;;;;;10.63;4.07;;;20.60;99.90;;;;;;5023127;28;20044;-77
2022/06/12 09:15:52;;;;;;;17.02;5.18;;;20.70;99.90;;;;;;5021283;28;20124;-77
2022/06/12 09:18:32;;;;;;;12.85;5.00;;;20.90;99.90;;;;;;5022228;28;20060;-77
2022/06/12 09:21:24;;;;;;;17.77;5.28;;;21.20;99.90;;;;;;5039742;28;20451;-78
2022/06/12 09:23:53;;;;;;;13.80;4.75;;;21.40;99.90;;;;;;5023095;28;20490;-78
2022/06/12 09:26:51;;;;;;;12.10;4.15;;;21.40;99.90;;;;;;5020914;28;20398;-78
2022/06/12 09:29:46;;;;;;;13.13;4.00;;;21.40;99.90;;;;;;5036514;28;20279;-79
2022/06/12 09:32:33;;;;;;;14.20;4.53;;;21.40;99.90;;;;;;5037915;28;20044;-77
2022/06/12 09:35:11;;;;;;;13.35;4.10;;;21.50;99.90;;;;;;5035776;28;20041;-78
2022/06/12 09:40:41;;;;;;;12.23;4.13;;;21.80;99.90;;;;;;5036023;28;20040;-77
2022/06/12 09:43:31;;;;;;;13.32;4.40;;;21.80;99.90;;;;;;5035460;28;20506;-79
2022/06/12 09:46:07;;;;;;;10.27;4.35;;;21.90;99.90;;;;;;5035038;28;20049;-78
2022/06/12 09:48:56;;;;;;;10.93;3.65;;;22.10;99.90;;;;;;5041976;28;20054;-78
2022/06/12 09:51:27;;;;;;;9.82;3.60;;;22.10;99.90;;;;;;5038525;28;20584;-79
2022/06/12 09:54:20;;;;;;;11.82;3.72;;;22.20;99.90;;;;;;5040260;28;20037;-79
2022/06/12 09:57:10;;;;;;;9.57;3.80;;;22.00;98.90;;;;;;5022590;28;20045;-78
2022/06/12 09:59:55;;;;;;;11.50;3.95;;;21.90;99.60;;;;;;5024768;28;20045;-79
2022/06/12 10:02:24;;;;;;;9.95;3.47;;;21.90;99.50;;;;;;5057953;28;20083;-78
2022/06/12 10:05:13;;;;;;;10.55;3.47;;;22.00;99.40;;;;;;5025090;28;20041;-79
2022/06/12 10:07:45;;;;;;;11.20;3.28;;;21.80;98.60;;;;;;5028286;28;20041;-78
2022/06/12 10:10:39;;;;;;;10.52;3.53;;;21.90;99.10;;;;;;5014610;28;20470;-78
2022/06/12 10:13:11;;;;;;;11.48;4.05;;;21.90;98.40;;;;;;5013730;28;20305;-79
2022/06/12 10:15:45;;;;;;;10.77;3.88;;;21.90;98.50;;;;;;4990247;28;20249;-80
2022/06/12 10:18:23;;;;;;;10.18;2.90;;;22.10;98.20;;;;;;5010578;28;20526;-78
2022/06/12 10:20:55;;;;;;;12.10;3.80;;;22.40;98.70;;;;;;5003432;28;20098;-79
2022/06/12 10:23:22;;;;;;;9.75;3.10;;;22.40;97.60;;;;;;5018373;28;20474;-79
2022/06/12 10:25:59;;;;;;;9.20;3.00;;;22.30;97.60;;;;;;5016212;28;20459;-79
2022/06/12 10:28:29;;;;;;;7.30;3.00;;;22.40;97.50;;;;;;5018531;28;20049;-75
2022/06/12 10:31:04;;;;;;;12.90;3.42;;;22.20;96.80;;;;;;5000248;28;20053;-75
2022/06/12 10:33:42;;;;;;;9.23;3.20;;;22.20;97.80;;;;;;5010194;28;20086;-77
2022/06/12 10:36:38;;;;;;;7.18;2.75;;;22.30;97.30;;;;;;5032299;28;20045;-79
2022/06/12 10:39:06;;;;;;;8.10;2.85;;;22.40;96.60;;;;;;5006607;28;20615;-72
2022/06/12 10:41:32;;;;;;;10.40;2.97;;;22.80;96.80;;;;;;5027673;28;20042;-72
2022/06/12 10:43:58;;;;;;;10.02;3.20;;;23.00;96.40;;;;;;5015376;28;20094;-72
2022/06/12 10:46:30;;;;;;;8.32;3.00;;;22.70;95.60;;;;;;5017507;28;20041;-72
2022/06/12 10:49:14;;;;;;;8.35;2.78;;;22.50;95.60;;;;;;5023742;28;20037;-73
2022/06/12 10:51:42;;;;;;;7.22;2.42;;;22.10;95.70;;;;;;5035093;28;20046;-72
2022/06/12 10:54:28;;;;;;;5.95;2.45;;;21.60;95.60;;;;;;5018037;28;20059;-72
2022/06/12 10:57:12;;;;;;;4.07;2.10;;;21.50;94.30;;;;;;5020202;28;20052;-72
2022/06/12 10:59:45;;;;;;;5.97;2.58;;;21.80;95.40;;;;;;5029894;28;20136;-72
2022/06/12 11:02:23;;;;;;;8.82;2.25;;;22.20;94.80;;;;;;5023567;28;20103;-72
2022/06/12 11:05:10;;;;;;;7.55;2.53;;;22.60;95.30;;;;;;5011578;28;20041;-72
2022/06/12 11:07:44;;;;;;;8.13;2.35;;;22.70;94.30;;;;;;5019871;28;20042;-73
2022/06/12 11:10:25;;;;;;;7.30;1.90;;;22.90;93.70;;;;;;5026098;28;20037;-72
2022/06/12 11:13:00;;;;;;;5.15;2.20;;;22.80;91.00;;;;;;5009578;28;20037;-74
2022/06/12 11:15:36;;;;;;;5.55;2.67;;;22.90;91.10;;;;;;5015832;28;20038;-73
2022/06/12 11:18:29;;;;;;;6.65;2.35;;;23.10;91.70;;;;;;5010208;28;20120;-73
2022/06/12 11:21:13;;;;;;;7.30;2.20;;;23.00;91.80;;;;;;5009293;28;20050;-73
2022/06/12 11:24:28;;;;;;;7.20;2.83;;;23.30;92.60;;;;;;5014239;28;20060;-73
2022/06/12 11:27:13;;;;;;;8.23;2.70;;;23.50;91.30;;;;;;5021000;28;20403;-73
2022/06/12 11:29:56;;;;;;;4.20;2.22;;;23.50;90.30;;;;;;5024110;28;20052;-72
2022/06/12 11:32:38;;;;;;;8.07;2.40;;;23.50;90.70;;;;;;5014286;28;20490;-72
2022/06/12 11:35:15;;;;;;;6.15;2.50;;;23.40;90.80;;;;;;5013084;28;20042;-74
2022/06/12 11:38:07;;;;;;;6.05;2.35;;;23.50;88.90;;;;;;5034945;28;20107;-72
2022/06/12 11:40:53;;;;;;;6.28;2.20;;;23.20;88.30;;;;;;5038213;28;20099;-73
2022/06/12 11:43:31;;;;;;;6.10;1.98;;;23.00;88.30;;;;;;5009152;28;20085;-73
2022/06/12 11:46:08;;;;;;;4.07;2.00;;;22.90;88.10;;;;;;5009230;28;20053;-73
2022/06/12 11:49:12;;;;;;;7.35;2.10;;;22.70;87.10;;;;;;5019088;28;20121;-74
2022/06/12 11:52:02;;;;;;;5.47;1.95;;;22.70;86.00;;;;;;5004793;28;20054;-72
2022/06/12 11:54:46;;;;;;;5.38;2.00;;;22.80;83.20;;;;;;5025342;28;20034;-73
2022/06/12 11:57:17;;;;;;;2.08;1.58;;;22.80;83.80;;;;;;5027256;28;20068;-73
2022/06/12 11:59:51;;;;;;;5.32;1.60;;;22.90;82.30;;;;;;4999351;28;20177;-73
2022/06/12 12:02:44;;;;;;;2.92;1.58;;;23.00;83.60;;;;;;5025571;28;20065;-72
2022/06/12 12:05:21;;;;;;;4.70;1.50;;;23.00;79.10;;;;;;5025630;28;20505;-72
2022/06/12 12:08:11;;;;;;;3.30;1.90;;;23.20;81.00;;;;;;5020326;28;20034;-72
2022/06/12 12:11:17;;;;;;;3.65;1.92;;;23.10;80.10;;;;;;5025838;28;20042;-73
2022/06/12 12:13:50;;;;;;;2.80;1.52;;;22.90;73.60;;;;;;5024811;28;20046;-72
2022/06/12 12:16:43;;;;;;;5.15;1.52;;;22.80;75.60;;;;;;5024594;28;20034;-72
2022/06/12 12:19:32;;;;;;;3.38;1.48;;;22.70;74.80;;;;;;5006992;28;20045;-74
2022/06/12 12:22:10;;;;;;;5.15;1.35;;;22.70;75.60;;;;;;5025337;28;20062;-73
2022/06/12 12:24:49;;;;;;;3.53;1.40;;;22.40;76.50;;;;;;5027769;28;20040;-72
2022/06/12 12:27:27;;;;;;;3.65;1.83;;;22.50;76.70;;;;;;5028863;28;20406;-73
2022/06/12 12:29:56;;;;;;;5.47;1.95;;;22.60;78.60;;;;;;5009045;28;20417;-73
2022/06/12 12:32:25;;;;;;;5.93;1.70;;;22.60;78.10;;;;;;5003356;28;20432;-72
2022/06/12 12:34:54;;;;;;;5.00;2.05;;;22.60;78.00;;;;;;5009119;28;20283;-72
2022/06/12 12:43:19;;;;;;;5.03;2.17;;;22.90;79.60;;;;;;5012014;28;20474;-72
2022/06/12 12:45:44;;;;;;;6.10;2.08;;;23.00;78.10;;;;;;5043020;28;20137;-73
2022/06/12 12:48:13;;;;;;;4.45;1.98;;;23.00;77.80;;;;;;5043280;28;20049;-72
2022/06/12 12:50:55;;;;;;;5.13;1.60;;;23.10;78.30;;;;;;5033070;28;20391;-73
2022/06/12 12:53:26;;;;;;;3.83;1.67;;;23.30;79.60;;;;;;5028716;28;20034;-72
2022/06/12 12:56:13;;;;;;;4.05;1.80;;;23.30;78.80;;;;;;5041201;28;20041;-73
2022/06/12 12:58:59;;;;;;;4.65;1.60;;;23.50;78.50;;;;;;5031268;28;20045;-72
2022/06/12 13:01:36;;;;;;;7.05;1.88;;;23.40;76.90;;;;;;5029504;28;20041;-73
2022/06/12 13:04:23;;;;;;;6.40;2.10;;;23.30;77.10;;;;;;5003769;28;20517;-73
2022/06/12 13:06:55;;;;;;;6.63;1.88;;;23.00;75.60;;;;;;5017974;28;20052;-73
2022/06/12 13:09:36;;;;;;;5.85;2.03;;;22.90;78.80;;;;;;5034338;28;20411;-73
2022/06/12 13:12:16;;;;;;;3.78;1.58;;;22.80;76.20;;;;;;5028548;28;20498;-73
2022/06/12 13:15:19;;;;;;;4.97;1.60;;;22.80;77.10;;;;;;5012714;28;20052;-73
2022/06/12 13:18:12;;;;;;;2.20;1.50;;;22.80;76.50;;;;;;5024334;28;20391;-73
2022/06/12 13:20:43;;;;;;;;;;;22.90;75.20;;;;;;5010445;28;20061;-78
2022/06/12 13:23:25;;;;;;;4.75;2.10;;;22.80;76.30;;;;;;5021420;28;19925;-78
2022/06/12 13:25:56;;;;;;;2.83;1.53;;;22.90;75.80;;;;;;5019943;28;20102;-78
2022/06/12 13:28:28;;;;;;;3.85;1.65;;;22.80;74.20;;;;;;5012365;28;20819;-78
2022/06/12 13:30:55;;;;;;;4.78;1.70;;;23.00;76.10;;;;;;5029892;28;20041;-77
2022/06/12 13:33:28;;;;;;;4.25;2.10;;;23.00;75.30;;;;;;5015185;28;20036;-79
2022/06/12 13:36:02;;;;;;;5.43;1.80;;;23.10;75.00;;;;;;5039407;28;20431;-78
2022/06/12 13:38:46;;;;;;;5.65;1.70;;;23.10;73.60;;;;;;5013628;28;20546;-77
2022/06/12 13:41:30;;;;;;;4.90;1.85;;;23.00;72.70;;;;;;5022404;28;20042;-77